sensor_id;sensor_type;location;lat;lon;timestamp;P1;durP1;ratioP1;P2;durP2;ratioP2
11078;SDS011;5592;49.234;7.268;2024-03-22T00:00:41;6.27;;;5.03;;
11078;SDS011;5592;49.234;7.268;2024-03-22T00:03:06;6.07;;;4.70;;
11078;SDS011;5592;49.234;7.268;2024-03-22T00:05:32;5.50;;;4.30;;
11078;SDS011;5592;49.234;7.268;2024-03-22T00:07:57;6.03;;;4.50;;
11078;SDS011;5592;49.234;7.268;2024-03-22T00:10:24;5.20;;;4.20;;
11078;SDS011;5592;49.234;7.268;2024-03-22T00:12:49;8.77;;;4.10;;
11078;SDS011;5592;49.234;7.268;2024-03-22T00:15:15;6.70;;;4.33;;
11078;SDS011;5592;49.234;7.268;2024-03-22T00:17:42;7.73;;;4.57;;
11078;SDS011;5592;49.234;7.268;2024-03-22T00:20:08;6.53;;;4.27;;
11078;SDS011;5592;49.234;7.268;2024-03-22T00:22:34;16.60;;;4.53;;
11078;SDS011;5592;49.234;7.268;2024-03-22T00:24:59;7.20;;;4.50;;
11078;SDS011;5592;49.234;7.268;2024-03-22T00:27:25;5.00;;;4.50;;
11078;SDS011;5592;49.234;7.268;2024-03-22T00:29:50;5.50;;;4.67;;
11078;SDS011;5592;49.234;7.268;2024-03-22T00:32:16;5.93;;;4.50;;
11078;SDS011;5592;49.234;7.268;2024-03-22T00:34:41;5.90;;;4.50;;
11078;SDS011;5592;49.234;7.268;2024-03-22T00:37:07;8.57;;;4.57;;
11078;SDS011;5592;49.234;7.268;2024-03-22T00:39:32;5.63;;;4.13;;
11078;SDS011;5592;49.234;7.268;2024-03-22T00:41:58;6.43;;;4.80;;
11078;SDS011;5592;49.234;7.268;2024-03-22T00:44:23;7.20;;;4.93;;
11078;SDS011;5592;49.234;7.268;2024-03-22T00:46:49;7.73;;;4.80;;
11078;SDS011;5592;49.234;7.268;2024-03-22T00:49:14;7.67;;;4.43;;
11078;SDS011;5592;49.234;7.268;2024-03-22T00:51:40;4.30;;;3.80;;
11078;SDS011;5592;49.234;7.268;2024-03-22T00:54:08;4.50;;;3.80;;
11078;SDS011;5592;49.234;7.268;2024-03-22T00:56:34;7.27;;;4.33;;
11078;SDS011;5592;49.234;7.268;2024-03-22T00:58:59;5.40;;;3.70;;
11078;SDS011;5592;49.234;7.268;2024-03-22T01:01:25;7.53;;;4.20;;
11078;SDS011;5592;49.234;7.268;2024-03-22T01:03:50;4.53;;;3.80;;
11078;SDS011;5592;49.234;7.268;2024-03-22T01:06:16;6.20;;;4.40;;
11078;SDS011;5592;49.234;7.268;2024-03-22T01:08:47;4.40;;;3.77;;
11078;SDS011;5592;49.234;7.268;2024-03-22T01:11:13;4.90;;;3.67;;
11078;SDS011;5592;49.234;7.268;2024-03-22T01:13:38;5.57;;;4.03;;
11078;SDS011;5592;49.234;7.268;2024-03-22T01:16:04;3.40;;;3.10;;
11078;SDS011;5592;49.234;7.268;2024-03-22T01:18:30;6.00;;;3.80;;
11078;SDS011;5592;49.234;7.268;2024-03-22T01:20:55;5.03;;;3.47;;
11078;SDS011;5592;49.234;7.268;2024-03-22T01:23:21;4.20;;;3.20;;
11078;SDS011;5592;49.234;7.268;2024-03-22T01:25:46;10.20;;;3.60;;
11078;SDS011;5592;49.234;7.268;2024-03-22T01:28:12;3.57;;;3.23;;
11078;SDS011;5592;49.234;7.268;2024-03-22T01:30:37;4.70;;;3.37;;
11078;SDS011;5592;49.234;7.268;2024-03-22T01:33:03;5.53;;;3.50;;
11078;SDS011;5592;49.234;7.268;2024-03-22T01:35:28;5.47;;;3.47;;
11078;SDS011;5592;49.234;7.268;2024-03-22T01:37:54;5.13;;;3.43;;
11078;SDS011;5592;49.234;7.268;2024-03-22T01:40:19;5.63;;;4.20;;
11078;SDS011;5592;49.234;7.268;2024-03-22T01:42:45;8.37;;;4.40;;
11078;SDS011;5592;49.234;7.268;2024-03-22T01:45:11;5.10;;;3.70;;
11078;SDS011;5592;49.234;7.268;2024-03-22T01:47:38;6.60;;;3.73;;
11078;SDS011;5592;49.234;7.268;2024-03-22T01:50:04;3.77;;;3.37;;
11078;SDS011;5592;49.234;7.268;2024-03-22T01:52:31;5.10;;;3.60;;
11078;SDS011;5592;49.234;7.268;2024-03-22T01:54:57;4.80;;;3.80;;
11078;SDS011;5592;49.234;7.268;2024-03-22T01:57:23;5.57;;;4.10;;
11078;SDS011;5592;49.234;7.268;2024-03-22T01:59:48;5.47;;;3.80;;
11078;SDS011;5592;49.234;7.268;2024-03-22T02:02:16;5.67;;;3.53;;
11078;SDS011;5592;49.234;7.268;2024-03-22T02:04:42;5.80;;;4.10;;
11078;SDS011;5592;49.234;7.268;2024-03-22T02:07:07;5.20;;;3.20;;
11078;SDS011;5592;49.234;7.268;2024-03-22T02:09:33;5.00;;;3.83;;
11078;SDS011;5592;49.234;7.268;2024-03-22T02:11:59;4.50;;;3.70;;
11078;SDS011;5592;49.234;7.268;2024-03-22T02:14:24;4.90;;;3.67;;
11078;SDS011;5592;49.234;7.268;2024-03-22T02:16:50;4.80;;;4.20;;
11078;SDS011;5592;49.234;7.268;2024-03-22T02:19:16;5.10;;;4.27;;
11078;SDS011;5592;49.234;7.268;2024-03-22T02:21:41;5.40;;;3.50;;
11078;SDS011;5592;49.234;7.268;2024-03-22T02:24:07;4.37;;;3.47;;
11078;SDS011;5592;49.234;7.268;2024-03-22T02:26:32;5.70;;;3.70;;
11078;SDS011;5592;49.234;7.268;2024-03-22T02:28:58;4.73;;;3.80;;
11078;SDS011;5592;49.234;7.268;2024-03-22T02:31:23;8.57;;;5.00;;
11078;SDS011;5592;49.234;7.268;2024-03-22T02:33:50;7.27;;;4.20;;
11078;SDS011;5592;49.234;7.268;2024-03-22T02:36:16;4.13;;;3.70;;
11078;SDS011;5592;49.234;7.268;2024-03-22T02:38:41;6.30;;;4.13;;
11078;SDS011;5592;49.234;7.268;2024-03-22T02:41:07;4.80;;;3.67;;
11078;SDS011;5592;49.234;7.268;2024-03-22T02:43:36;8.27;;;4.60;;
11078;SDS011;5592;49.234;7.268;2024-03-22T02:46:01;6.23;;;3.90;;
11078;SDS011;5592;49.234;7.268;2024-03-22T02:48:27;5.57;;;4.20;;
11078;SDS011;5592;49.234;7.268;2024-03-22T02:50:55;4.87;;;3.40;;
11078;SDS011;5592;49.234;7.268;2024-03-22T02:53:21;7.80;;;4.27;;
11078;SDS011;5592;49.234;7.268;2024-03-22T02:55:46;4.73;;;3.83;;
11078;SDS011;5592;49.234;7.268;2024-03-22T02:58:12;6.30;;;4.03;;
11078;SDS011;5592;49.234;7.268;2024-03-22T03:00:37;8.37;;;4.40;;
11078;SDS011;5592;49.234;7.268;2024-03-22T03:03:04;6.40;;;4.73;;
11078;SDS011;5592;49.234;7.268;2024-03-22T03:05:30;15.50;;;4.20;;
11078;SDS011;5592;49.234;7.268;2024-03-22T03:07:55;6.17;;;4.53;;
11078;SDS011;5592;49.234;7.268;2024-03-22T03:10:21;8.77;;;6.03;;
11078;SDS011;5592;49.234;7.268;2024-03-22T03:12:46;17.80;;;5.90;;
11078;SDS011;5592;49.234;7.268;2024-03-22T03:15:13;8.20;;;7.17;;
11078;SDS011;5592;49.234;7.268;2024-03-22T03:17:39;8.10;;;5.83;;
11078;SDS011;5592;49.234;7.268;2024-03-22T03:20:05;12.33;;;5.90;;
11078;SDS011;5592;49.234;7.268;2024-03-22T03:22:33;8.33;;;5.70;;
11078;SDS011;5592;49.234;7.268;2024-03-22T03:24:59;7.23;;;5.80;;
11078;SDS011;5592;49.234;7.268;2024-03-22T03:27:25;8.30;;;6.27;;
11078;SDS011;5592;49.234;7.268;2024-03-22T03:29:50;11.47;;;6.00;;
11078;SDS011;5592;49.234;7.268;2024-03-22T03:32:16;7.73;;;6.17;;
11078;SDS011;5592;49.234;7.268;2024-03-22T03:34:41;8.80;;;6.00;;
11078;SDS011;5592;49.234;7.268;2024-03-22T03:37:07;9.93;;;5.97;;
11078;SDS011;5592;49.234;7.268;2024-03-22T03:39:32;10.40;;;6.47;;
11078;SDS011;5592;49.234;7.268;2024-03-22T03:41:58;8.50;;;6.00;;
11078;SDS011;5592;49.234;7.268;2024-03-22T03:44:23;28.57;;;6.80;;
11078;SDS011;5592;49.234;7.268;2024-03-22T03:46:49;7.97;;;5.83;;
11078;SDS011;5592;49.234;7.268;2024-03-22T03:49:14;8.17;;;6.27;;
11078;SDS011;5592;49.234;7.268;2024-03-22T03:51:40;7.43;;;6.07;;
11078;SDS011;5592;49.234;7.268;2024-03-22T03:54:05;7.70;;;5.87;;
11078;SDS011;5592;49.234;7.268;2024-03-22T03:56:31;10.33;;;5.90;;
11078;SDS011;5592;49.234;7.268;2024-03-22T03:58:57;10.73;;;6.50;;
11078;SDS011;5592;49.234;7.268;2024-03-22T04:01:22;9.80;;;7.67;;
11078;SDS011;5592;49.234;7.268;2024-03-22T04:03:51;12.40;;;7.27;;
11078;SDS011;5592;49.234;7.268;2024-03-22T04:06:16;9.90;;;6.33;;
11078;SDS011;5592;49.234;7.268;2024-03-22T04:08:42;7.80;;;5.63;;
11078;SDS011;5592;49.234;7.268;2024-03-22T04:11:08;9.17;;;6.07;;
11078;SDS011;5592;49.234;7.268;2024-03-22T04:13:35;9.10;;;6.00;;
11078;SDS011;5592;49.234;7.268;2024-03-22T04:16:00;12.43;;;6.30;;
11078;SDS011;5592;49.234;7.268;2024-03-22T04:18:26;7.27;;;5.60;;
11078;SDS011;5592;49.234;7.268;2024-03-22T04:20:55;6.20;;;5.50;;
11078;SDS011;5592;49.234;7.268;2024-03-22T04:23:22;9.97;;;5.87;;
11078;SDS011;5592;49.234;7.268;2024-03-22T04:25:58;8.50;;;6.50;;
11078;SDS011;5592;49.234;7.268;2024-03-22T04:28:28;6.30;;;5.40;;
11078;SDS011;5592;49.234;7.268;2024-03-22T04:30:57;9.60;;;5.40;;
11078;SDS011;5592;49.234;7.268;2024-03-22T04:33:24;7.20;;;5.40;;
11078;SDS011;5592;49.234;7.268;2024-03-22T04:35:50;6.43;;;5.03;;
11078;SDS011;5592;49.234;7.268;2024-03-22T04:38:16;8.67;;;5.67;;
11078;SDS011;5592;49.234;7.268;2024-03-22T04:40:43;8.87;;;5.57;;
11078;SDS011;5592;49.234;7.268;2024-03-22T04:43:09;7.73;;;5.40;;
11078;SDS011;5592;49.234;7.268;2024-03-22T04:45:34;6.43;;;4.73;;
11078;SDS011;5592;49.234;7.268;2024-03-22T04:48:03;9.20;;;5.53;;
11078;SDS011;5592;49.234;7.268;2024-03-22T04:50:29;6.20;;;5.33;;
11078;SDS011;5592;49.234;7.268;2024-03-22T04:52:56;5.90;;;4.70;;
11078;SDS011;5592;49.234;7.268;2024-03-22T04:55:21;9.13;;;5.47;;
11078;SDS011;5592;49.234;7.268;2024-03-22T04:57:47;6.20;;;5.47;;
11078;SDS011;5592;49.234;7.268;2024-03-22T05:00:13;8.03;;;5.07;;
11078;SDS011;5592;49.234;7.268;2024-03-22T05:02:39;7.17;;;4.73;;
11078;SDS011;5592;49.234;7.268;2024-03-22T05:05:05;8.50;;;5.33;;
11078;SDS011;5592;49.234;7.268;2024-03-22T05:07:30;6.33;;;4.97;;
11078;SDS011;5592;49.234;7.268;2024-03-22T05:09:56;6.70;;;4.90;;
11078;SDS011;5592;49.234;7.268;2024-03-22T05:12:22;8.93;;;5.97;;
11078;SDS011;5592;49.234;7.268;2024-03-22T05:14:47;7.53;;;5.60;;
11078;SDS011;5592;49.234;7.268;2024-03-22T05:17:13;7.50;;;5.90;;
11078;SDS011;5592;49.234;7.268;2024-03-22T05:19:38;6.30;;;5.17;;
11078;SDS011;5592;49.234;7.268;2024-03-22T05:22:04;13.80;;;6.03;;
11078;SDS011;5592;49.234;7.268;2024-03-22T05:24:29;11.13;;;6.27;;
11078;SDS011;5592;49.234;7.268;2024-03-22T05:26:55;8.40;;;5.87;;
11078;SDS011;5592;49.234;7.268;2024-03-22T05:29:20;10.50;;;6.33;;
11078;SDS011;5592;49.234;7.268;2024-03-22T05:31:46;10.40;;;5.33;;
11078;SDS011;5592;49.234;7.268;2024-03-22T05:34:14;10.23;;;5.50;;
11078;SDS011;5592;49.234;7.268;2024-03-22T05:36:40;8.07;;;5.40;;
11078;SDS011;5592;49.234;7.268;2024-03-22T05:39:05;5.33;;;4.77;;
11078;SDS011;5592;49.234;7.268;2024-03-22T05:41:31;8.40;;;6.00;;
11078;SDS011;5592;49.234;7.268;2024-03-22T05:43:57;9.13;;;5.83;;
11078;SDS011;5592;49.234;7.268;2024-03-22T05:46:22;10.10;;;6.40;;
11078;SDS011;5592;49.234;7.268;2024-03-22T05:48:48;9.53;;;6.30;;
11078;SDS011;5592;49.234;7.268;2024-03-22T05:51:15;12.13;;;7.60;;
11078;SDS011;5592;49.234;7.268;2024-03-22T05:53:41;8.73;;;6.30;;
11078;SDS011;5592;49.234;7.268;2024-03-22T05:56:07;10.00;;;6.50;;
11078;SDS011;5592;49.234;7.268;2024-03-22T05:58:33;13.43;;;6.70;;
11078;SDS011;5592;49.234;7.268;2024-03-22T06:00:59;14.83;;;7.43;;
11078;SDS011;5592;49.234;7.268;2024-03-22T06:03:25;8.60;;;6.23;;
11078;SDS011;5592;49.234;7.268;2024-03-22T06:05:50;8.33;;;6.40;;
11078;SDS011;5592;49.234;7.268;2024-03-22T06:08:24;8.67;;;6.00;;
11078;SDS011;5592;49.234;7.268;2024-03-22T06:10:50;8.00;;;6.43;;
11078;SDS011;5592;49.234;7.268;2024-03-22T06:13:17;7.17;;;5.00;;
11078;SDS011;5592;49.234;7.268;2024-03-22T06:15:44;7.40;;;4.47;;
11078;SDS011;5592;49.234;7.268;2024-03-22T06:18:13;4.83;;;4.07;;
11078;SDS011;5592;49.234;7.268;2024-03-22T06:20:38;6.17;;;5.00;;
11078;SDS011;5592;49.234;7.268;2024-03-22T06:23:04;5.00;;;4.13;;
11078;SDS011;5592;49.234;7.268;2024-03-22T06:25:29;8.13;;;4.77;;
11078;SDS011;5592;49.234;7.268;2024-03-22T06:27:55;7.50;;;5.73;;
11078;SDS011;5592;49.234;7.268;2024-03-22T06:30:20;13.13;;;6.20;;
11078;SDS011;5592;49.234;7.268;2024-03-22T06:32:46;13.20;;;7.30;;
11078;SDS011;5592;49.234;7.268;2024-03-22T06:35:11;12.53;;;6.27;;
11078;SDS011;5592;49.234;7.268;2024-03-22T06:37:38;6.60;;;5.10;;
11078;SDS011;5592;49.234;7.268;2024-03-22T06:40:05;9.10;;;5.83;;
11078;SDS011;5592;49.234;7.268;2024-03-22T06:42:32;10.90;;;6.63;;
11078;SDS011;5592;49.234;7.268;2024-03-22T06:44:58;14.40;;;6.20;;
11078;SDS011;5592;49.234;7.268;2024-03-22T06:47:23;9.33;;;4.97;;
11078;SDS011;5592;49.234;7.268;2024-03-22T06:49:49;8.10;;;5.27;;
11078;SDS011;5592;49.234;7.268;2024-03-22T06:52:15;12.90;;;5.90;;
11078;SDS011;5592;49.234;7.268;2024-03-22T06:54:40;6.67;;;4.83;;
11078;SDS011;5592;49.234;7.268;2024-03-22T06:57:06;7.67;;;5.70;;
11078;SDS011;5592;49.234;7.268;2024-03-22T06:59:32;11.23;;;5.93;;
11078;SDS011;5592;49.234;7.268;2024-03-22T07:01:57;14.40;;;5.47;;
11078;SDS011;5592;49.234;7.268;2024-03-22T07:04:23;9.10;;;4.80;;
11078;SDS011;5592;49.234;7.268;2024-03-22T07:06:48;9.27;;;5.40;;
11078;SDS011;5592;49.234;7.268;2024-03-22T07:09:14;5.57;;;4.67;;
11078;SDS011;5592;49.234;7.268;2024-03-22T07:11:40;6.60;;;4.80;;
11078;SDS011;5592;49.234;7.268;2024-03-22T07:14:06;8.20;;;5.27;;
11078;SDS011;5592;49.234;7.268;2024-03-22T07:16:32;11.40;;;5.97;;
11078;SDS011;5592;49.234;7.268;2024-03-22T07:18:57;9.10;;;5.90;;
11078;SDS011;5592;49.234;7.268;2024-03-22T07:21:23;8.40;;;6.10;;
11078;SDS011;5592;49.234;7.268;2024-03-22T07:23:49;11.53;;;5.83;;
11078;SDS011;5592;49.234;7.268;2024-03-22T07:26:15;10.37;;;5.83;;
11078;SDS011;5592;49.234;7.268;2024-03-22T07:28:41;9.03;;;5.80;;
11078;SDS011;5592;49.234;7.268;2024-03-22T07:31:06;13.10;;;6.30;;
11078;SDS011;5592;49.234;7.268;2024-03-22T07:33:33;8.67;;;5.90;;
11078;SDS011;5592;49.234;7.268;2024-03-22T07:36:04;10.00;;;6.07;;
11078;SDS011;5592;49.234;7.268;2024-03-22T07:38:31;8.47;;;5.73;;
11078;SDS011;5592;49.234;7.268;2024-03-22T07:40:57;8.97;;;6.00;;
11078;SDS011;5592;49.234;7.268;2024-03-22T07:43:33;8.53;;;6.53;;
11078;SDS011;5592;49.234;7.268;2024-03-22T07:45:58;10.97;;;6.53;;
11078;SDS011;5592;49.234;7.268;2024-03-22T07:48:25;9.63;;;5.43;;
11078;SDS011;5592;49.234;7.268;2024-03-22T07:50:58;10.40;;;6.23;;
11078;SDS011;5592;49.234;7.268;2024-03-22T07:53:24;11.67;;;6.23;;
11078;SDS011;5592;49.234;7.268;2024-03-22T07:55:50;15.40;;;7.13;;
11078;SDS011;5592;49.234;7.268;2024-03-22T07:58:15;11.43;;;6.77;;
11078;SDS011;5592;49.234;7.268;2024-03-22T08:00:45;10.13;;;7.37;;
11078;SDS011;5592;49.234;7.268;2024-03-22T08:03:13;11.53;;;7.37;;
11078;SDS011;5592;49.234;7.268;2024-03-22T08:05:43;12.00;;;7.83;;
11078;SDS011;5592;49.234;7.268;2024-03-22T08:08:11;16.23;;;8.63;;
11078;SDS011;5592;49.234;7.268;2024-03-22T08:10:37;11.17;;;8.37;;
11078;SDS011;5592;49.234;7.268;2024-03-22T08:13:05;10.77;;;7.70;;
11078;SDS011;5592;49.234;7.268;2024-03-22T08:15:31;13.13;;;8.30;;
11078;SDS011;5592;49.234;7.268;2024-03-22T08:17:57;9.13;;;7.13;;
11078;SDS011;5592;49.234;7.268;2024-03-22T08:20:23;17.13;;;7.50;;
11078;SDS011;5592;49.234;7.268;2024-03-22T08:22:50;10.73;;;7.20;;
11078;SDS011;5592;49.234;7.268;2024-03-22T08:25:16;11.80;;;9.13;;
11078;SDS011;5592;49.234;7.268;2024-03-22T08:27:43;12.60;;;8.67;;
11078;SDS011;5592;49.234;7.268;2024-03-22T08:30:09;12.30;;;8.60;;
11078;SDS011;5592;49.234;7.268;2024-03-22T08:32:37;14.43;;;9.43;;
11078;SDS011;5592;49.234;7.268;2024-03-22T08:35:02;15.50;;;8.80;;
11078;SDS011;5592;49.234;7.268;2024-03-22T08:37:29;10.10;;;7.97;;
11078;SDS011;5592;49.234;7.268;2024-03-22T08:39:55;13.10;;;8.90;;
11078;SDS011;5592;49.234;7.268;2024-03-22T08:42:21;12.33;;;9.23;;
11078;SDS011;5592;49.234;7.268;2024-03-22T08:44:46;13.50;;;10.33;;
11078;SDS011;5592;49.234;7.268;2024-03-22T08:47:12;15.10;;;9.40;;
11078;SDS011;5592;49.234;7.268;2024-03-22T08:49:39;15.40;;;10.00;;
11078;SDS011;5592;49.234;7.268;2024-03-22T08:52:06;12.27;;;9.00;;
11078;SDS011;5592;49.234;7.268;2024-03-22T08:54:32;16.30;;;9.40;;
11078;SDS011;5592;49.234;7.268;2024-03-22T08:56:59;15.97;;;10.10;;
11078;SDS011;5592;49.234;7.268;2024-03-22T08:59:24;20.77;;;11.77;;
11078;SDS011;5592;49.234;7.268;2024-03-22T09:01:50;16.10;;;9.63;;
11078;SDS011;5592;49.234;7.268;2024-03-22T09:04:15;12.10;;;10.00;;
11078;SDS011;5592;49.234;7.268;2024-03-22T09:06:41;16.43;;;9.80;;
11078;SDS011;5592;49.234;7.268;2024-03-22T09:09:07;14.17;;;10.30;;
11078;SDS011;5592;49.234;7.268;2024-03-22T09:11:34;13.70;;;9.50;;
11078;SDS011;5592;49.234;7.268;2024-03-22T09:14:02;12.63;;;9.87;;
11078;SDS011;5592;49.234;7.268;2024-03-22T09:16:29;12.40;;;8.23;;
11078;SDS011;5592;49.234;7.268;2024-03-22T09:18:56;14.37;;;9.30;;
11078;SDS011;5592;49.234;7.268;2024-03-22T09:21:23;14.03;;;8.40;;
11078;SDS011;5592;49.234;7.268;2024-03-22T09:23:52;14.67;;;8.80;;
11078;SDS011;5592;49.234;7.268;2024-03-22T09:26:20;11.20;;;9.43;;
11078;SDS011;5592;49.234;7.268;2024-03-22T09:28:47;12.93;;;9.33;;
11078;SDS011;5592;49.234;7.268;2024-03-22T09:31:13;11.60;;;8.67;;
11078;SDS011;5592;49.234;7.268;2024-03-22T09:33:42;14.00;;;8.60;;
11078;SDS011;5592;49.234;7.268;2024-03-22T09:36:10;12.87;;;8.57;;
11078;SDS011;5592;49.234;7.268;2024-03-22T09:38:40;10.37;;;8.00;;
11078;SDS011;5592;49.234;7.268;2024-03-22T09:41:07;11.97;;;7.50;;
11078;SDS011;5592;49.234;7.268;2024-03-22T09:43:32;11.63;;;8.20;;
11078;SDS011;5592;49.234;7.268;2024-03-22T09:46:00;13.13;;;9.00;;
11078;SDS011;5592;49.234;7.268;2024-03-22T09:48:26;14.23;;;8.20;;
11078;SDS011;5592;49.234;7.268;2024-03-22T09:50:54;20.43;;;9.10;;
11078;SDS011;5592;49.234;7.268;2024-03-22T09:53:21;10.57;;;8.57;;
11078;SDS011;5592;49.234;7.268;2024-03-22T09:55:52;10.83;;;8.60;;
11078;SDS011;5592;49.234;7.268;2024-03-22T09:58:22;12.73;;;8.07;;
11078;SDS011;5592;49.234;7.268;2024-03-22T10:00:48;11.40;;;7.80;;
11078;SDS011;5592;49.234;7.268;2024-03-22T10:03:13;11.67;;;7.77;;
11078;SDS011;5592;49.234;7.268;2024-03-22T10:05:45;10.10;;;8.60;;
11078;SDS011;5592;49.234;7.268;2024-03-22T10:08:10;9.40;;;8.00;;
11078;SDS011;5592;49.234;7.268;2024-03-22T10:10:37;13.83;;;9.50;;
11078;SDS011;5592;49.234;7.268;2024-03-22T10:13:03;14.57;;;9.00;;
11078;SDS011;5592;49.234;7.268;2024-03-22T10:15:31;12.57;;;8.50;;
11078;SDS011;5592;49.234;7.268;2024-03-22T10:17:59;14.30;;;9.20;;
11078;SDS011;5592;49.234;7.268;2024-03-22T10:20:25;11.10;;;8.30;;
11078;SDS011;5592;49.234;7.268;2024-03-22T10:25:23;12.00;;;8.00;;
11078;SDS011;5592;49.234;7.268;2024-03-22T10:27:53;9.17;;;7.53;;
11078;SDS011;5592;49.234;7.268;2024-03-22T10:30:20;10.77;;;7.80;;
11078;SDS011;5592;49.234;7.268;2024-03-22T10:32:48;11.07;;;8.13;;
11078;SDS011;5592;49.234;7.268;2024-03-22T10:35:14;13.50;;;8.67;;
11078;SDS011;5592;49.234;7.268;2024-03-22T10:37:40;14.30;;;8.80;;
11078;SDS011;5592;49.234;7.268;2024-03-22T10:40:06;9.03;;;7.83;;
11078;SDS011;5592;49.234;7.268;2024-03-22T10:42:33;12.47;;;8.40;;
11078;SDS011;5592;49.234;7.268;2024-03-22T10:45:09;11.40;;;8.10;;
11078;SDS011;5592;49.234;7.268;2024-03-22T10:47:36;12.60;;;8.07;;
11078;SDS011;5592;49.234;7.268;2024-03-22T10:50:11;16.83;;;8.67;;
11078;SDS011;5592;49.234;7.268;2024-03-22T10:52:38;11.80;;;7.93;;
11078;SDS011;5592;49.234;7.268;2024-03-22T10:55:27;11.97;;;7.97;;
11078;SDS011;5592;49.234;7.268;2024-03-22T10:58:01;15.20;;;8.90;;
11078;SDS011;5592;49.234;7.268;2024-03-22T11:00:28;10.40;;;7.50;;
11078;SDS011;5592;49.234;7.268;2024-03-22T11:02:54;13.03;;;9.37;;
11078;SDS011;5592;49.234;7.268;2024-03-22T11:05:20;12.37;;;8.77;;
11078;SDS011;5592;49.234;7.268;2024-03-22T11:07:46;14.73;;;8.53;;
11078;SDS011;5592;49.234;7.268;2024-03-22T11:10:13;14.50;;;10.40;;
11078;SDS011;5592;49.234;7.268;2024-03-22T11:12:39;10.90;;;8.73;;
11078;SDS011;5592;49.234;7.268;2024-03-22T11:15:07;13.20;;;10.57;;
11078;SDS011;5592;49.234;7.268;2024-03-22T11:17:38;14.47;;;8.63;;
11078;SDS011;5592;49.234;7.268;2024-03-22T11:20:04;13.53;;;10.00;;
11078;SDS011;5592;49.234;7.268;2024-03-22T11:22:30;13.53;;;9.23;;
11078;SDS011;5592;49.234;7.268;2024-03-22T11:24:56;12.83;;;8.90;;
11078;SDS011;5592;49.234;7.268;2024-03-22T11:27:23;12.87;;;9.60;;
11078;SDS011;5592;49.234;7.268;2024-03-22T11:29:48;14.87;;;11.23;;
11078;SDS011;5592;49.234;7.268;2024-03-22T11:32:17;14.90;;;11.80;;
11078;SDS011;5592;49.234;7.268;2024-03-22T11:34:47;14.17;;;10.93;;
11078;SDS011;5592;49.234;7.268;2024-03-22T11:37:15;14.87;;;10.63;;
11078;SDS011;5592;49.234;7.268;2024-03-22T11:39:40;18.67;;;12.37;;
11078;SDS011;5592;49.234;7.268;2024-03-22T11:42:08;19.90;;;13.60;;
11078;SDS011;5592;49.234;7.268;2024-03-22T11:44:34;20.63;;;14.93;;
11078;SDS011;5592;49.234;7.268;2024-03-22T11:47:01;16.77;;;13.00;;
11078;SDS011;5592;49.234;7.268;2024-03-22T11:49:28;17.57;;;13.37;;
11078;SDS011;5592;49.234;7.268;2024-03-22T11:51:58;21.27;;;13.47;;
11078;SDS011;5592;49.234;7.268;2024-03-22T11:54:23;20.43;;;14.33;;
11078;SDS011;5592;49.234;7.268;2024-03-22T11:56:49;16.00;;;12.73;;
11078;SDS011;5592;49.234;7.268;2024-03-22T11:59:14;21.77;;;15.37;;
11078;SDS011;5592;49.234;7.268;2024-03-22T12:01:43;18.50;;;14.10;;
11078;SDS011;5592;49.234;7.268;2024-03-22T12:04:10;17.83;;;14.00;;
11078;SDS011;5592;49.234;7.268;2024-03-22T12:06:44;18.27;;;13.73;;
11078;SDS011;5592;49.234;7.268;2024-03-22T12:09:10;26.30;;;15.43;;
11078;SDS011;5592;49.234;7.268;2024-03-22T12:11:39;19.77;;;14.93;;
11078;SDS011;5592;49.234;7.268;2024-03-22T12:14:05;17.13;;;12.87;;
11078;SDS011;5592;49.234;7.268;2024-03-22T12:16:30;23.27;;;14.67;;
11078;SDS011;5592;49.234;7.268;2024-03-22T12:18:57;18.60;;;12.80;;
11078;SDS011;5592;49.234;7.268;2024-03-22T12:21:23;20.57;;;15.83;;
11078;SDS011;5592;49.234;7.268;2024-03-22T12:23:49;18.50;;;13.73;;
11078;SDS011;5592;49.234;7.268;2024-03-22T12:26:15;20.27;;;13.97;;
11078;SDS011;5592;49.234;7.268;2024-03-22T12:28:40;19.70;;;14.10;;
11078;SDS011;5592;49.234;7.268;2024-03-22T12:31:07;16.80;;;13.67;;
11078;SDS011;5592;49.234;7.268;2024-03-22T12:33:33;18.93;;;12.43;;
11078;SDS011;5592;49.234;7.268;2024-03-22T12:35:59;17.90;;;12.57;;
11078;SDS011;5592;49.234;7.268;2024-03-22T12:38:25;18.40;;;12.43;;
11078;SDS011;5592;49.234;7.268;2024-03-22T12:40:50;17.23;;;12.73;;
11078;SDS011;5592;49.234;7.268;2024-03-22T12:43:16;17.00;;;12.73;;
11078;SDS011;5592;49.234;7.268;2024-03-22T12:45:42;18.70;;;12.87;;
11078;SDS011;5592;49.234;7.268;2024-03-22T12:48:07;18.77;;;11.33;;
11078;SDS011;5592;49.234;7.268;2024-03-22T12:50:33;16.90;;;11.67;;
11078;SDS011;5592;49.234;7.268;2024-03-22T12:53:00;18.50;;;11.30;;
11078;SDS011;5592;49.234;7.268;2024-03-22T12:55:26;19.97;;;13.87;;
11078;SDS011;5592;49.234;7.268;2024-03-22T12:57:53;19.90;;;11.80;;
11078;SDS011;5592;49.234;7.268;2024-03-22T13:00:19;15.87;;;11.57;;
11078;SDS011;5592;49.234;7.268;2024-03-22T13:02:45;16.20;;;11.70;;
11078;SDS011;5592;49.234;7.268;2024-03-22T13:05:11;18.33;;;12.57;;
11078;SDS011;5592;49.234;7.268;2024-03-22T13:07:37;14.47;;;11.10;;
11078;SDS011;5592;49.234;7.268;2024-03-22T13:10:02;17.50;;;10.73;;
11078;SDS011;5592;49.234;7.268;2024-03-22T13:12:28;15.73;;;11.60;;
11078;SDS011;5592;49.234;7.268;2024-03-22T13:14:56;19.93;;;12.13;;
11078;SDS011;5592;49.234;7.268;2024-03-22T13:17:22;15.57;;;11.80;;
11078;SDS011;5592;49.234;7.268;2024-03-22T13:19:49;18.30;;;12.40;;
11078;SDS011;5592;49.234;7.268;2024-03-22T13:22:14;15.30;;;11.43;;
11078;SDS011;5592;49.234;7.268;2024-03-22T13:24:46;16.50;;;11.10;;
11078;SDS011;5592;49.234;7.268;2024-03-22T13:27:12;16.73;;;11.13;;
11078;SDS011;5592;49.234;7.268;2024-03-22T13:29:39;13.87;;;9.70;;
11078;SDS011;5592;49.234;7.268;2024-03-22T13:32:07;12.87;;;9.67;;
11078;SDS011;5592;49.234;7.268;2024-03-22T13:34:34;18.30;;;10.83;;
11078;SDS011;5592;49.234;7.268;2024-03-22T13:37:00;16.93;;;10.73;;
11078;SDS011;5592;49.234;7.268;2024-03-22T13:39:26;15.40;;;9.97;;
11078;SDS011;5592;49.234;7.268;2024-03-22T13:41:51;17.53;;;9.70;;
11078;SDS011;5592;49.234;7.268;2024-03-22T13:44:17;16.10;;;9.93;;
11078;SDS011;5592;49.234;7.268;2024-03-22T13:46:42;17.10;;;10.27;;
11078;SDS011;5592;49.234;7.268;2024-03-22T13:49:15;12.43;;;10.50;;
11078;SDS011;5592;49.234;7.268;2024-03-22T13:51:41;16.00;;;10.00;;
11078;SDS011;5592;49.234;7.268;2024-03-22T13:54:07;12.10;;;9.43;;
11078;SDS011;5592;49.234;7.268;2024-03-22T13:56:33;13.17;;;9.80;;
11078;SDS011;5592;49.234;7.268;2024-03-22T13:58:58;31.03;;;10.97;;
11078;SDS011;5592;49.234;7.268;2024-03-22T14:01:24;12.70;;;9.90;;
11078;SDS011;5592;49.234;7.268;2024-03-22T14:03:50;13.20;;;9.37;;
11078;SDS011;5592;49.234;7.268;2024-03-22T14:06:16;13.60;;;9.60;;
11078;SDS011;5592;49.234;7.268;2024-03-22T14:08:41;14.33;;;10.40;;
11078;SDS011;5592;49.234;7.268;2024-03-22T14:11:07;14.57;;;9.23;;
11078;SDS011;5592;49.234;7.268;2024-03-22T14:13:32;14.20;;;10.90;;
11078;SDS011;5592;49.234;7.268;2024-03-22T14:15:58;12.90;;;9.43;;
11078;SDS011;5592;49.234;7.268;2024-03-22T14:18:23;16.77;;;10.30;;
11078;SDS011;5592;49.234;7.268;2024-03-22T14:20:49;15.63;;;10.50;;
11078;SDS011;5592;49.234;7.268;2024-03-22T14:23:15;16.80;;;10.30;;
11078;SDS011;5592;49.234;7.268;2024-03-22T14:25:40;19.17;;;12.10;;
11078;SDS011;5592;49.234;7.268;2024-03-22T14:28:06;15.07;;;9.53;;
11078;SDS011;5592;49.234;7.268;2024-03-22T14:30:32;17.10;;;10.80;;
11078;SDS011;5592;49.234;7.268;2024-03-22T14:32:57;12.97;;;9.77;;
11078;SDS011;5592;49.234;7.268;2024-03-22T14:35:23;12.77;;;9.53;;
11078;SDS011;5592;49.234;7.268;2024-03-22T14:37:48;13.73;;;10.27;;
11078;SDS011;5592;49.234;7.268;2024-03-22T14:40:14;14.20;;;9.33;;
11078;SDS011;5592;49.234;7.268;2024-03-22T14:42:41;14.70;;;10.63;;
11078;SDS011;5592;49.234;7.268;2024-03-22T14:45:08;15.20;;;10.17;;
11078;SDS011;5592;49.234;7.268;2024-03-22T14:47:35;15.33;;;10.20;;